createdAt,value
2018-04-10T00:00:38.760Z,99.90
2018-04-10T00:03:06.427Z,99.90
2018-04-10T00:05:34.130Z,99.90
2018-04-10T00:08:01.915Z,99.90
2018-04-10T00:10:32.876Z,99.90
2018-04-10T00:13:01.231Z,99.90
2018-04-10T00:15:28.869Z,99.90
2018-04-10T00:17:56.490Z,99.90
2018-04-10T00:20:24.122Z,99.90
2018-04-10T00:22:51.667Z,99.90
2018-04-10T00:25:19.335Z,99.90
2018-04-10T00:27:46.973Z,99.90
2018-04-10T00:30:14.979Z,99.90
2018-04-10T00:32:46.409Z,99.90
2018-04-10T00:35:14.078Z,99.90
2018-04-10T00:37:41.704Z,99.90
2018-04-10T00:40:10.572Z,99.90
2018-04-10T00:42:38.263Z,99.90
2018-04-10T00:45:05.912Z,99.90
2018-04-10T00:47:33.546Z,99.90
2018-04-10T00:50:01.916Z,99.90
2018-04-10T00:52:30.332Z,99.90
2018-04-10T00:54:59.408Z,99.90
2018-04-10T00:57:26.990Z,99.90
2018-04-10T00:59:54.597Z,99.90
2018-04-10T01:02:22.985Z,99.90
2018-04-10T01:04:50.622Z,99.90
2018-04-10T01:07:18.216Z,99.90
2018-04-10T01:09:46.541Z,99.90
2018-04-10T01:12:14.174Z,99.90
2018-04-10T01:14:41.825Z,99.90
2018-04-10T01:17:09.513Z,99.90
2018-04-10T01:19:37.099Z,99.90
2018-04-10T01:22:04.673Z,99.90
2018-04-10T01:24:32.321Z,99.90
2018-04-10T01:27:00.265Z,99.90
2018-04-10T01:29:27.897Z,99.90
2018-04-10T01:31:56.247Z,99.90
2018-04-10T01:34:23.896Z,99.90
2018-04-10T01:36:51.503Z,99.90
2018-04-10T01:39:21.001Z,99.90
2018-04-10T01:41:49.449Z,99.90
2018-04-10T01:44:17.092Z,99.90
2018-04-10T01:46:44.703Z,99.90
2018-04-10T01:49:13.076Z,99.90
2018-04-10T01:51:40.741Z,99.90
2018-04-10T01:54:09.183Z,99.90
2018-04-10T01:56:36.837Z,99.90
2018-04-10T01:59:04.491Z,99.90
2018-04-10T02:01:32.151Z,99.90
2018-04-10T02:03:59.769Z,99.90
2018-04-10T02:06:27.411Z,99.90
2018-04-10T02:08:55.059Z,99.90
2018-04-10T02:11:22.679Z,99.90
2018-04-10T02:13:50.284Z,99.90
2018-04-10T02:16:17.984Z,99.90
2018-04-10T02:18:45.631Z,99.90
2018-04-10T02:21:14.092Z,99.90
2018-04-10T02:23:41.764Z,99.90
2018-04-10T02:26:09.362Z,99.90
2018-04-10T02:28:37.001Z,99.90
2018-04-10T02:31:04.644Z,99.90
2018-04-10T02:33:32.249Z,99.90
2018-04-10T02:35:59.870Z,99.90
2018-04-10T02:38:27.502Z,99.90
2018-04-10T02:40:55.106Z,99.90
2018-04-10T02:43:22.742Z,99.90
2018-04-10T02:46:04.491Z,99.90
2018-04-10T02:48:32.109Z,99.90
2018-04-10T02:51:00.528Z,99.90
2018-04-10T02:53:28.919Z,99.90
2018-04-10T02:55:56.572Z,99.90
2018-04-10T02:58:24.152Z,99.90
2018-04-10T03:00:51.795Z,99.90
2018-04-10T03:03:19.440Z,99.90
2018-04-10T03:05:47.120Z,99.90
2018-04-10T03:08:17.423Z,99.90
2018-04-10T03:10:45.061Z,99.90
2018-04-10T03:13:12.721Z,99.90
2018-04-10T03:15:40.399Z,99.90
2018-04-10T03:18:08.785Z,99.90
2018-04-10T03:20:37.204Z,99.90
2018-04-10T03:23:04.871Z,99.90
2018-04-10T03:25:32.508Z,99.90
2018-04-10T03:28:00.161Z,99.90
2018-04-10T03:30:27.945Z,99.90
2018-04-10T03:32:56.209Z,99.90
2018-04-10T03:35:23.827Z,99.90
2018-04-10T03:37:51.455Z,99.90
2018-04-10T03:40:19.094Z,99.90
2018-04-10T03:42:46.717Z,99.90
2018-04-10T03:45:14.491Z,99.90
2018-04-10T03:47:42.961Z,99.90
2018-04-10T03:50:10.694Z,99.90
2018-04-10T03:52:39.695Z,99.90
2018-04-10T03:55:07.372Z,99.90
2018-04-10T03:57:35.162Z,99.90
2018-04-10T04:00:02.871Z,99.90
2018-04-10T04:02:30.479Z,99.90
2018-04-10T04:04:58.920Z,99.90
2018-04-10T04:07:26.558Z,99.90
2018-04-10T04:09:54.205Z,99.90
2018-04-10T04:12:21.933Z,99.90
2018-04-10T04:14:49.613Z,99.90
2018-04-10T04:17:34.236Z,99.90
2018-04-10T04:20:13.566Z,99.90
2018-04-10T04:22:41.260Z,99.90
2018-04-10T04:25:08.886Z,99.90
2018-04-10T04:27:36.518Z,99.90
2018-04-10T04:30:04.218Z,99.90
2018-04-10T04:32:31.850Z,99.90
2018-04-10T04:35:00.460Z,99.90
2018-04-10T04:37:28.106Z,99.90
2018-04-10T04:39:55.710Z,99.90
2018-04-10T04:42:23.365Z,99.90
2018-04-10T04:44:51.046Z,99.90
2018-04-10T04:47:19.735Z,99.90
2018-04-10T04:49:47.363Z,99.90
2018-04-10T04:52:15.021Z,99.90
2018-04-10T04:54:42.641Z,99.90
2018-04-10T04:57:11.649Z,99.90
2018-04-10T04:59:39.335Z,99.90
2018-04-10T05:02:06.913Z,99.90
2018-04-10T05:04:34.539Z,99.90
2018-04-10T05:07:02.917Z,99.90
2018-04-10T05:09:30.635Z,99.90
2018-04-10T05:11:58.981Z,99.90
2018-04-10T05:14:26.518Z,99.90
2018-04-10T05:16:54.156Z,99.90
2018-04-10T05:19:24.872Z,99.90
2018-04-10T05:21:53.285Z,99.90
2018-04-10T05:24:20.889Z,99.90
2018-04-10T05:26:48.563Z,99.90
2018-04-10T05:29:16.168Z,99.90
2018-04-10T05:31:44.580Z,99.90
2018-04-10T05:34:12.215Z,99.90
2018-04-10T05:36:39.908Z,99.90
2018-04-10T05:39:07.539Z,99.90
2018-04-10T05:41:35.946Z,99.90
2018-04-10T05:44:03.592Z,99.90
2018-04-10T05:46:31.255Z,99.90
2018-04-10T05:48:58.874Z,99.90
2018-04-10T05:51:27.279Z,99.90
2018-04-10T05:53:54.900Z,99.90
2018-04-10T05:56:23.412Z,99.90
2018-04-10T05:58:51.086Z,99.90
2018-04-10T06:01:18.779Z,99.90
2018-04-10T06:03:47.233Z,99.90
2018-04-10T06:06:14.909Z,99.90
2018-04-10T06:08:42.535Z,99.90
2018-04-10T06:11:10.247Z,99.90
2018-04-10T06:13:37.917Z,99.90
2018-04-10T06:16:05.558Z,99.90
2018-04-10T06:18:33.311Z,99.90
2018-04-10T06:21:00.966Z,99.90
2018-04-10T06:23:28.598Z,99.90
2018-04-10T06:26:04.702Z,99.90
2018-04-10T06:28:32.335Z,99.90
2018-04-10T06:30:59.931Z,99.90
2018-04-10T06:33:27.579Z,99.90
2018-04-10T06:35:55.223Z,99.90
2018-04-10T06:38:22.793Z,99.90
2018-04-10T06:40:50.528Z,99.90
2018-04-10T06:43:18.150Z,99.90
2018-04-10T06:45:45.803Z,99.90
2018-04-10T06:48:13.409Z,99.90
2018-04-10T06:50:41.794Z,99.90
2018-04-10T06:53:09.452Z,99.90
2018-04-10T06:55:37.066Z,99.90
2018-04-10T06:58:04.744Z,99.90
2018-04-10T07:00:32.392Z,99.90
2018-04-10T07:03:00.098Z,99.90
2018-04-10T07:05:28.524Z,99.90
2018-04-10T07:07:56.325Z,99.90
2018-04-10T07:10:24.101Z,99.90
2018-04-10T07:12:51.738Z,99.90
2018-04-10T07:15:19.381Z,99.90
2018-04-10T07:17:47.047Z,99.90
2018-04-10T07:20:14.661Z,99.90
2018-04-10T07:22:42.265Z,99.90
2018-04-10T07:25:09.931Z,99.90
2018-04-10T07:27:37.615Z,99.90
2018-04-10T07:30:05.218Z,99.90
2018-04-10T07:32:33.071Z,99.90
2018-04-10T07:35:01.719Z,99.80
2018-04-10T07:37:29.946Z,99.90
2018-04-10T07:39:57.550Z,99.60
2018-04-10T07:42:25.447Z,96.80
2018-04-10T07:44:53.867Z,98.00
2018-04-10T07:47:21.530Z,98.00
2018-04-10T07:49:49.270Z,96.00
2018-04-10T07:52:16.940Z,97.80
2018-04-10T07:54:44.810Z,98.80
2018-04-10T07:57:12.469Z,98.50
2018-04-10T07:59:40.427Z,99.60
2018-04-10T08:02:08.068Z,99.80
2018-04-10T08:04:35.799Z,98.70
2018-04-10T08:07:04.788Z,98.30
2018-04-10T08:09:32.609Z,97.40
2018-04-10T08:12:00.255Z,98.00
2018-04-10T08:14:28.739Z,96.30
2018-04-10T08:17:00.329Z,96.30
2018-04-10T08:19:28.011Z,96.80
2018-04-10T08:21:55.630Z,95.40
2018-04-10T08:24:23.280Z,93.90
2018-04-10T08:26:50.960Z,95.10
2018-04-10T08:29:18.608Z,94.80
2018-04-10T08:31:46.217Z,93.10
2018-04-10T08:34:13.939Z,93.00
2018-04-10T08:36:41.629Z,93.20
2018-04-10T08:39:12.908Z,93.90
2018-04-10T08:41:42.135Z,93.90
2018-04-10T08:44:10.673Z,91.70
2018-04-10T08:46:41.680Z,91.70
2018-04-10T08:49:09.317Z,91.90
2018-04-10T08:51:37.675Z,91.10
2018-04-10T08:54:06.492Z,89.30
2018-04-10T08:56:34.155Z,90.90
2018-04-10T08:59:01.772Z,90.50
2018-04-10T09:01:29.364Z,90.20
2018-04-10T09:03:56.974Z,91.30
2018-04-10T09:06:24.704Z,90.00
2018-04-10T09:09:06.219Z,87.70
2018-04-10T09:11:34.690Z,87.30
2018-04-10T09:14:02.333Z,87.40
2018-04-10T09:16:30.718Z,83.40
2018-04-10T09:18:58.340Z,83.40
2018-04-10T09:21:25.990Z,86.10
2018-04-10T09:23:53.588Z,83.80
2018-04-10T09:26:21.938Z,80.50
2018-04-10T09:28:49.581Z,80.50
2018-04-10T09:31:18.955Z,88.00
2018-04-10T09:33:46.556Z,87.90
2018-04-10T09:36:14.216Z,84.40
2018-04-10T09:38:41.885Z,82.50
2018-04-10T09:41:10.071Z,86.90
2018-04-10T09:43:37.960Z,81.40
2018-04-10T09:46:05.596Z,81.80
2018-04-10T09:48:33.260Z,79.90
2018-04-10T09:51:00.910Z,82.10
2018-04-10T09:53:28.507Z,81.40
2018-04-10T09:55:56.900Z,80.70
2018-04-10T09:58:24.505Z,80.70
2018-04-10T10:00:52.167Z,77.70
2018-04-10T10:03:19.828Z,78.90
2018-04-10T10:05:47.495Z,76.50
2018-04-10T10:08:15.235Z,75.10
2018-04-10T10:10:42.981Z,76.50
2018-04-10T10:13:12.521Z,75.90
2018-04-10T10:15:56.357Z,73.10
2018-04-10T10:18:25.557Z,75.10
2018-04-10T10:20:54.737Z,73.80
2018-04-10T10:23:23.223Z,68.30
2018-04-10T10:25:51.002Z,68.30
2018-04-10T10:28:20.225Z,70.00
2018-04-10T10:30:47.976Z,69.00
2018-04-10T10:33:15.692Z,68.80
2018-04-10T10:35:44.170Z,69.00
2018-04-10T10:38:12.675Z,68.90
2018-04-10T10:40:44.878Z,69.30
2018-04-10T10:43:19.384Z,66.30
2018-04-10T10:45:56.406Z,67.90
2018-04-10T10:48:24.363Z,67.90
2018-04-10T10:50:51.998Z,68.30
2018-04-10T10:53:19.648Z,67.60
2018-04-10T10:55:47.356Z,69.60
2018-04-10T10:58:17.205Z,67.00
2018-04-10T11:03:38.762Z,67.70
2018-04-10T11:06:06.381Z,70.10
2018-04-10T11:08:34.934Z,65.70
2018-04-10T11:11:02.618Z,66.10
2018-04-10T11:13:31.679Z,66.30
2018-04-10T11:15:59.805Z,66.40
2018-04-10T11:18:30.419Z,62.70
2018-04-10T11:20:59.621Z,62.90
2018-04-10T11:23:30.318Z,62.50
2018-04-10T11:26:13.961Z,62.60
2018-04-10T11:28:41.594Z,65.50
2018-04-10T11:31:10.515Z,63.50
2018-04-10T11:33:39.926Z,64.20
2018-04-10T11:36:08.578Z,65.20
2018-04-10T11:38:36.249Z,66.20
2018-04-10T11:41:07.295Z,64.30
2018-04-10T11:46:12.405Z,65.30
2018-04-10T11:48:40.045Z,65.10
2018-04-10T11:51:07.662Z,65.30
2018-04-10T11:53:35.282Z,62.50
2018-04-10T11:56:02.925Z,64.10
2018-04-10T11:58:30.544Z,60.30
2018-04-10T12:00:58.202Z,63.10
2018-04-10T12:03:25.756Z,59.50
2018-04-10T12:05:54.214Z,58.00
2018-04-10T12:08:21.793Z,58.10
2018-04-10T12:10:49.378Z,58.80
2018-04-10T12:13:17.004Z,60.80
2018-04-10T12:15:45.414Z,57.80
2018-04-10T12:18:13.208Z,57.70
2018-04-10T12:20:40.740Z,56.20
2018-04-10T12:23:08.347Z,59.40
2018-04-10T12:25:36.159Z,57.90
2018-04-10T12:28:03.813Z,57.70
2018-04-10T12:30:31.375Z,56.60
2018-04-10T12:32:59.793Z,59.00
2018-04-10T12:35:27.478Z,58.60
2018-04-10T12:37:55.090Z,57.20
2018-04-10T12:40:22.749Z,56.80
2018-04-10T12:42:50.407Z,56.30
2018-04-10T12:45:18.021Z,56.70
2018-04-10T12:47:46.422Z,56.70
2018-04-10T12:50:14.133Z,56.70
2018-04-10T12:52:42.582Z,54.10
2018-04-10T12:55:10.206Z,54.00
2018-04-10T12:57:37.910Z,54.70
2018-04-10T13:00:05.574Z,54.80
2018-04-10T13:02:33.244Z,53.10
2018-04-10T13:05:00.978Z,53.70
2018-04-10T13:07:28.959Z,54.50
2018-04-10T13:09:56.577Z,53.80
2018-04-10T13:12:24.168Z,55.80
2018-04-10T13:14:52.016Z,55.30
2018-04-10T13:17:19.779Z,53.80
2018-04-10T13:19:47.439Z,56.30
2018-04-10T13:22:15.037Z,57.70
2018-04-10T13:24:42.651Z,54.60
2018-04-10T13:27:10.329Z,54.30
2018-04-10T13:29:37.973Z,52.00
2018-04-10T13:32:05.606Z,51.60
2018-04-10T13:34:34.030Z,52.00
2018-04-10T13:37:01.716Z,51.90
2018-04-10T13:39:29.406Z,51.10
2018-04-10T13:41:57.022Z,50.80
2018-04-10T13:44:24.676Z,49.70
2018-04-10T13:46:52.305Z,47.90
2018-04-10T13:49:19.939Z,49.30
2018-04-10T13:51:47.601Z,53.30
2018-04-10T13:54:15.257Z,55.00
2018-04-10T13:56:42.921Z,54.50
2018-04-10T13:59:10.591Z,54.20
2018-04-10T14:01:38.267Z,55.60
2018-04-10T14:04:05.951Z,55.50
2018-04-10T14:06:33.580Z,55.00
2018-04-10T14:09:01.193Z,57.10
2018-04-10T14:11:28.862Z,51.80
2018-04-10T14:13:56.498Z,53.20
2018-04-10T14:16:24.163Z,56.40
2018-04-10T14:18:51.825Z,55.20
2018-04-10T14:21:19.497Z,57.00
2018-04-10T14:23:47.165Z,56.60
2018-04-10T14:26:14.779Z,57.30
2018-04-10T14:28:42.415Z,58.10
2018-04-10T14:31:10.021Z,57.30
2018-04-10T14:33:37.657Z,56.70
2018-04-10T14:36:05.272Z,58.30
2018-04-10T14:38:32.987Z,56.60
2018-04-10T14:41:00.658Z,56.30
2018-04-10T14:43:28.329Z,56.40
2018-04-10T14:45:55.928Z,56.20
2018-04-10T14:48:23.573Z,58.30
2018-04-10T14:50:51.239Z,55.60
2018-04-10T14:53:18.869Z,55.90
2018-04-10T14:55:46.526Z,55.20
2018-04-10T14:58:14.174Z,54.70
2018-04-10T15:00:41.885Z,53.50
2018-04-10T15:03:09.498Z,55.40
2018-04-10T15:05:37.111Z,53.90
2018-04-10T15:08:04.700Z,56.30
2018-04-10T15:10:33.151Z,55.60
2018-04-10T15:13:01.538Z,55.50
2018-04-10T15:15:29.220Z,55.40
2018-04-10T15:17:56.836Z,50.90
2018-04-10T15:20:24.499Z,52.40
2018-04-10T15:22:52.173Z,51.70
2018-04-10T15:25:19.863Z,51.80
2018-04-10T15:27:47.504Z,51.50
2018-04-10T15:30:15.126Z,54.80
2018-04-10T15:32:42.765Z,52.00
2018-04-10T15:35:10.436Z,52.10
2018-04-10T15:37:38.803Z,51.20
2018-04-10T15:40:06.463Z,51.30
2018-04-10T15:42:34.133Z,50.70
2018-04-10T15:45:02.616Z,49.30
2018-04-10T15:47:30.252Z,49.20
2018-04-10T15:49:57.854Z,50.60
2018-04-10T15:52:26.318Z,50.90
2018-04-10T15:54:54.724Z,49.90
2018-04-10T15:57:22.384Z,49.90
2018-04-10T15:59:50.056Z,52.70
2018-04-10T16:02:17.728Z,54.60
2018-04-10T16:04:45.338Z,54.40
2018-04-10T16:07:13.717Z,54.00
2018-04-10T16:09:41.346Z,53.90
2018-04-10T16:12:09.007Z,54.30
2018-04-10T16:14:36.613Z,54.00
2018-04-10T16:17:04.253Z,54.20
2018-04-10T16:19:32.665Z,54.30
2018-04-10T16:22:00.271Z,53.60
2018-04-10T16:24:27.885Z,54.40
2018-04-10T16:26:55.494Z,53.20
2018-04-10T16:29:23.105Z,53.50
2018-04-10T16:31:50.656Z,55.60
2018-04-10T16:34:18.297Z,56.00
2018-04-10T16:36:45.950Z,53.00
2018-04-10T16:39:13.575Z,51.10
2018-04-10T16:41:41.231Z,51.70
2018-04-10T16:44:08.883Z,52.80
2018-04-10T16:46:36.516Z,52.50
2018-04-10T16:49:04.156Z,51.20
2018-04-10T16:51:31.789Z,51.30
2018-04-10T16:54:00.172Z,51.90
2018-04-10T16:56:28.594Z,52.10
2018-04-10T16:58:56.230Z,52.00
2018-04-10T17:01:23.848Z,52.40
2018-04-10T17:03:51.494Z,52.40
2018-04-10T17:06:19.167Z,52.50
2018-04-10T17:08:47.550Z,53.10
2018-04-10T17:11:15.193Z,53.00
2018-04-10T17:13:43.455Z,54.00
2018-04-10T17:16:11.113Z,54.50
2018-04-10T17:18:38.796Z,54.20
2018-04-10T17:21:06.442Z,55.60
2018-04-10T17:23:34.141Z,55.70
2018-04-10T17:26:01.751Z,56.20
2018-04-10T17:28:29.408Z,56.80
2018-04-10T17:30:57.037Z,57.00
2018-04-10T17:33:25.494Z,59.40
2018-04-10T17:35:53.090Z,59.40
2018-04-10T17:38:20.734Z,61.20
2018-04-10T17:40:48.352Z,58.20
2018-04-10T17:43:15.966Z,59.80
2018-04-10T17:45:43.617Z,61.10
2018-04-10T17:48:11.274Z,63.10
2018-04-10T17:50:38.928Z,63.30
2018-04-10T17:53:06.589Z,64.50
2018-04-10T17:55:34.198Z,64.90
2018-04-10T17:58:01.835Z,64.90
2018-04-10T18:00:29.425Z,64.20
2018-04-10T18:02:57.011Z,62.70
2018-04-10T18:05:24.603Z,64.20
2018-04-10T18:07:52.226Z,70.10
2018-04-10T18:10:20.571Z,81.00
2018-04-10T18:12:48.254Z,81.10
2018-04-10T18:15:16.746Z,92.70
2018-04-10T18:17:44.379Z,92.70
2018-04-10T18:20:12.003Z,96.50
2018-04-10T18:22:39.618Z,93.50
2018-04-10T18:25:08.024Z,87.80
2018-04-10T18:27:35.636Z,87.80
2018-04-10T18:30:03.899Z,97.00
2018-04-10T18:32:31.530Z,97.10
2018-04-10T18:34:59.156Z,98.90
2018-04-10T18:37:26.765Z,99.90
2018-04-10T18:39:54.414Z,99.90
2018-04-10T18:42:22.113Z,99.90
2018-04-10T18:44:49.752Z,99.90
2018-04-10T18:47:17.357Z,99.90
2018-04-10T18:49:44.954Z,99.90
2018-04-10T18:52:12.543Z,99.90
2018-04-10T18:54:40.165Z,99.90
2018-04-10T18:57:07.783Z,99.90
2018-04-10T18:59:36.165Z,99.90
2018-04-10T19:02:03.804Z,99.90
2018-04-10T19:04:31.362Z,99.90
2018-04-10T19:06:59.791Z,99.90
2018-04-10T19:09:27.460Z,99.90
2018-04-10T19:11:55.093Z,99.90
2018-04-10T19:14:22.777Z,99.90
2018-04-10T19:16:50.404Z,99.90
2018-04-10T19:19:18.097Z,99.90
2018-04-10T19:21:45.783Z,99.90
2018-04-10T19:24:13.447Z,99.90
2018-04-10T19:26:41.109Z,99.90
2018-04-10T19:29:08.755Z,99.90
2018-04-10T19:31:36.379Z,99.90
2018-04-10T19:34:04.014Z,99.90
2018-04-10T19:36:32.351Z,99.90
2018-04-10T19:38:59.956Z,99.90
2018-04-10T19:41:27.525Z,99.90
2018-04-10T19:43:55.176Z,99.90
2018-04-10T19:46:22.762Z,99.90
2018-04-10T19:48:50.446Z,99.90
2018-04-10T19:51:18.085Z,99.90
2018-04-10T19:53:45.773Z,99.90
2018-04-10T19:56:13.383Z,99.90
2018-04-10T19:58:41.013Z,99.90
2018-04-10T20:01:09.377Z,99.90
2018-04-10T20:03:37.725Z,99.90
2018-04-10T20:06:05.384Z,99.90
2018-04-10T20:08:33.027Z,99.90
2018-04-10T20:11:00.667Z,99.90
2018-04-10T20:13:28.303Z,99.90
2018-04-10T20:15:55.969Z,99.90
2018-04-10T20:18:24.310Z,99.90
2018-04-10T20:20:51.945Z,99.90
2018-04-10T20:23:19.555Z,99.90
2018-04-10T20:25:47.187Z,99.90
2018-04-10T20:28:14.765Z,99.90
2018-04-10T20:30:42.382Z,99.90
2018-04-10T20:33:10.009Z,99.90
2018-04-10T20:35:37.596Z,99.90
2018-04-10T20:38:05.214Z,99.90
2018-04-10T20:40:33.592Z,99.90
2018-04-10T20:43:01.907Z,99.90
2018-04-10T20:45:29.513Z,99.90
2018-04-10T20:47:57.908Z,99.90
2018-04-10T20:50:26.902Z,99.90
2018-04-10T20:52:55.332Z,99.90
2018-04-10T20:55:22.886Z,99.90
2018-04-10T20:57:50.523Z,99.90
2018-04-10T21:00:18.151Z,99.90
2018-04-10T21:02:45.763Z,99.90
2018-04-10T21:05:13.355Z,99.90
2018-04-10T21:07:40.960Z,99.90
2018-04-10T21:10:08.629Z,99.90
2018-04-10T21:12:36.231Z,99.90
2018-04-10T21:15:04.590Z,99.90
2018-04-10T21:17:32.260Z,99.90
2018-04-10T21:19:59.933Z,99.90
2018-04-10T21:22:28.318Z,99.90
2018-04-10T21:24:55.930Z,99.90
2018-04-10T21:27:23.522Z,99.90
2018-04-10T21:29:51.145Z,99.90
2018-04-10T21:32:18.767Z,99.90
2018-04-10T21:34:46.360Z,99.90
2018-04-10T21:37:14.050Z,99.90
2018-04-10T21:39:42.466Z,99.90
2018-04-10T21:42:10.016Z,99.90
2018-04-10T21:44:38.392Z,99.90
2018-04-10T21:47:06.029Z,99.90
2018-04-10T21:49:33.723Z,99.90
2018-04-10T21:52:01.379Z,99.90
2018-04-10T21:54:28.988Z,99.90
2018-04-10T21:56:56.580Z,99.90
2018-04-10T21:59:24.982Z,99.90
2018-04-10T22:01:52.853Z,99.90
2018-04-10T22:04:20.496Z,99.90
2018-04-10T22:06:48.153Z,99.90
2018-04-10T22:09:15.789Z,99.90
2018-04-10T22:11:44.235Z,99.90
2018-04-10T22:14:11.869Z,99.90
2018-04-10T22:16:39.448Z,99.90
2018-04-10T22:19:07.085Z,99.90
2018-04-10T22:21:34.712Z,99.90
2018-04-10T22:24:03.106Z,99.90
2018-04-10T22:26:30.827Z,99.90
2018-04-10T22:28:58.522Z,99.90
2018-04-10T22:31:26.101Z,99.90
2018-04-10T22:33:53.767Z,99.90
2018-04-10T22:36:21.372Z,99.90
2018-04-10T22:38:49.054Z,99.90
2018-04-10T22:41:16.683Z,99.90
2018-04-10T22:43:44.496Z,99.90
2018-04-10T22:46:12.116Z,99.90
2018-04-10T22:48:39.743Z,99.90
2018-04-10T22:51:07.363Z,99.90
2018-04-10T22:53:34.983Z,99.90
2018-04-10T22:56:03.319Z,99.90
2018-04-10T22:58:30.983Z,99.90
2018-04-10T23:00:58.582Z,99.90
2018-04-10T23:03:26.258Z,99.90
2018-04-10T23:05:53.874Z,99.90
2018-04-10T23:08:21.570Z,99.90
2018-04-10T23:10:49.959Z,99.90
2018-04-10T23:13:17.614Z,99.90
2018-04-10T23:15:45.259Z,99.90
2018-04-10T23:18:13.693Z,99.90
2018-04-10T23:20:41.367Z,99.90
2018-04-10T23:23:08.966Z,99.90
2018-04-10T23:25:36.612Z,99.90
2018-04-10T23:28:05.200Z,99.90
2018-04-10T23:30:32.838Z,99.90
2018-04-10T23:33:00.520Z,99.90
2018-04-10T23:35:28.145Z,99.90
2018-04-10T23:37:56.540Z,99.90
2018-04-10T23:40:24.187Z,99.90
2018-04-10T23:42:51.833Z,99.90
2018-04-10T23:45:19.516Z,99.90
2018-04-10T23:47:47.155Z,99.90
2018-04-10T23:50:14.810Z,99.90
2018-04-10T23:52:42.430Z,99.90
2018-04-10T23:55:10.068Z,99.90
2018-04-10T23:57:37.680Z,99.90
